Eva, TN

11:57 AM CDT on May 30, 2015 (GMT -0500)
KTNWAVER2 | | Change Station
CLOSE
Current Station
Personal Weather Station
Location: Waverly, TN
Elevation: 453 ft
Nearby Weather Stations

Elev 453 ft 36.16 °N, 87.90 °W | Updated 41 seconds ago

Partly Cloudy
Partly Cloudy
79.6 °F
Feels Like 83 °F
N
6.0
Wind Variable Wind from SSW
Gusts 6.0 mph

Today
High -- | Low -- °F
--% Chance of Precip.
Yesterday
High -- | Low -- °F
Precip. -- in
5:37 AM 8:02 PM
Waxing Gibbous, 91% visible
Pressure 30.00 in
Visibility 10.0 miles
Clouds Scattered Clouds 2100 ft
Mostly Cloudy 2800 ft
Heat Index 83 °F
Dew Point 71 °F
Humidity 74%
Rainfall 0.00 in
Snow Depth Not available.
UV 6 out of 12
Pollen .70 out of 12
Air Quality Not available.
Flu Activity Sporadic
METAR KCEY 301635Z AUTO 19006KT 160V230 10SM SCT021 BKN028 25/23 A3000 RMK AO1

More Conditions Fewer Conditions

Pressure 30.00 in
Visibility 10.0 miles
Clouds Scattered Clouds 2100 ft
Mostly Cloudy 2800 ft
Heat Index 83 °F
Dew Point 71 °F
Humidity 74%
Rainfall 0.00 in
Snow Depth Not available.
UV 6 out of 12
Pollen .70 out of 12
Air Quality Not available.
Flu Activity Sporadic
METAR KCEY 301635Z AUTO 19006KT 160V230 10SM SCT021 BKN028 25/23 A3000 RMK AO1

More Conditions Fewer Conditions

10-Day Weather Forecast

Almanac

Astronomy

May. 30, 2015 Rise Set
Actual Time
Civil Twilight
Nautical Twilight
Astronomical Twilight
Moon
Length of Visible Light
Length of Day
Tomorrow will be .
, % of the Moon is Illuminated

Today's Extremes

State Highs State Lows

Community

WunderPhotos

Upload Photos

1,825,566 photos uploaded!

WunderBlogs® & News

Nearby

Air Quality

  Air Quality AQ Index Pollutant
Not available.

Snow Depth

Station Depth Elevation

Earthquake Activity

City Distance Mag. Time & Date
Minimum magnitude displayed is 2.5.

Coastal Water Temperatures

Place Temperature

Stations

Nearby Weather Stations

Station Location Temp. Windchill Dew Point Humidity Wind Precip. Elev Updated Type